sensor_id;sensor_type;location;lat;lon;timestamp;temperature;humidity
9949;DHT22;5013;51.840;8.276;2024-03-17T00:01:00;6.90;1.00
9949;DHT22;5013;51.840;8.276;2024-03-17T00:03:26;6.80;99.90
9949;DHT22;5013;51.840;8.276;2024-03-17T00:06:01;6.90;99.90
9949;DHT22;5013;51.840;8.276;2024-03-17T00:08:27;6.90;1.00
9949;DHT22;5013;51.840;8.276;2024-03-17T00:10:54;6.80;99.90
9949;DHT22;5013;51.840;8.276;2024-03-17T00:13:23;6.60;99.90
9949;DHT22;5013;51.840;8.276;2024-03-17T00:15:49;6.60;1.00
9949;DHT22;5013;51.840;8.276;2024-03-17T00:18:15;6.50;1.00
9949;DHT22;5013;51.840;8.276;2024-03-17T00:20:41;6.60;1.00
9949;DHT22;5013;51.840;8.276;2024-03-17T00:23:07;6.60;1.00
9949;DHT22;5013;51.840;8.276;2024-03-17T00:25:34;6.60;1.00
9949;DHT22;5013;51.840;8.276;2024-03-17T00:28:01;6.60;99.90
9949;DHT22;5013;51.840;8.276;2024-03-17T00:30:27;6.60;99.90
9949;DHT22;5013;51.840;8.276;2024-03-17T00:32:53;6.50;99.90
9949;DHT22;5013;51.840;8.276;2024-03-17T00:35:18;6.50;99.90
9949;DHT22;5013;51.840;8.276;2024-03-17T00:37:48;6.50;1.00
9949;DHT22;5013;51.840;8.276;2024-03-17T00:40:13;6.50;1.00
9949;DHT22;5013;51.840;8.276;2024-03-17T00:42:39;6.30;99.90
9949;DHT22;5013;51.840;8.276;2024-03-17T00:45:06;6.20;1.00
9949;DHT22;5013;51.840;8.276;2024-03-17T00:47:32;6.20;1.00
9949;DHT22;5013;51.840;8.276;2024-03-17T00:49:58;6.20;1.00
9949;DHT22;5013;51.840;8.276;2024-03-17T00:52:35;6.20;1.00
9949;DHT22;5013;51.840;8.276;2024-03-17T00:55:00;6.20;72.90
9949;DHT22;5013;51.840;8.276;2024-03-17T00:57:26;6.00;99.90
9949;DHT22;5013;51.840;8.276;2024-03-17T00:59:52;6.00;1.00
9949;DHT22;5013;51.840;8.276;2024-03-17T01:02:18;5.90;79.60
9949;DHT22;5013;51.840;8.276;2024-03-17T01:04:44;6.00;93.90
9949;DHT22;5013;51.840;8.276;2024-03-17T01:07:10;5.90;88.90
9949;DHT22;5013;51.840;8.276;2024-03-17T01:09:36;5.90;99.90
9949;DHT22;5013;51.840;8.276;2024-03-17T01:12:02;5.80;99.90
9949;DHT22;5013;51.840;8.276;2024-03-17T01:14:28;5.80;99.90
9949;DHT22;5013;51.840;8.276;2024-03-17T01:16:55;6.00;99.90
9949;DHT22;5013;51.840;8.276;2024-03-17T01:19:21;5.80;1.00
9949;DHT22;5013;51.840;8.276;2024-03-17T01:21:46;5.70;99.90
9949;DHT22;5013;51.840;8.276;2024-03-17T01:24:12;5.60;1.00
9949;DHT22;5013;51.840;8.276;2024-03-17T01:26:38;5.60;99.90
9949;DHT22;5013;51.840;8.276;2024-03-17T01:29:04;5.60;1.00
9949;DHT22;5013;51.840;8.276;2024-03-17T01:31:30;5.60;99.90
9949;DHT22;5013;51.840;8.276;2024-03-17T01:33:55;5.60;99.90
9949;DHT22;5013;51.840;8.276;2024-03-17T01:36:21;5.70;57.10
9949;DHT22;5013;51.840;8.276;2024-03-17T01:38:47;5.60;99.90
9949;DHT22;5013;51.840;8.276;2024-03-17T01:41:12;5.40;1.00
9949;DHT22;5013;51.840;8.276;2024-03-17T01:43:39;5.20;1.00
9949;DHT22;5013;51.840;8.276;2024-03-17T01:46:05;5.20;99.90
9949;DHT22;5013;51.840;8.276;2024-03-17T01:48:31;5.30;8.60
9949;DHT22;5013;51.840;8.276;2024-03-17T01:50:57;5.30;1.00
9949;DHT22;5013;51.840;8.276;2024-03-17T01:53:23;5.30;1.00
9949;DHT22;5013;51.840;8.276;2024-03-17T01:55:53;5.30;1.00
9949;DHT22;5013;51.840;8.276;2024-03-17T01:58:26;5.40;99.90
9949;DHT22;5013;51.840;8.276;2024-03-17T02:00:52;5.30;1.00
9949;DHT22;5013;51.840;8.276;2024-03-17T02:03:18;5.10;99.90
9949;DHT22;5013;51.840;8.276;2024-03-17T02:05:44;5.00;35.50
9949;DHT22;5013;51.840;8.276;2024-03-17T02:08:10;5.10;1.00
9949;DHT22;5013;51.840;8.276;2024-03-17T02:10:37;5.00;1.00
9949;DHT22;5013;51.840;8.276;2024-03-17T02:13:03;5.00;7.60
9949;DHT22;5013;51.840;8.276;2024-03-17T02:15:30;5.00;1.00
9949;DHT22;5013;51.840;8.276;2024-03-17T02:17:56;5.10;1.00
9949;DHT22;5013;51.840;8.276;2024-03-17T02:20:21;5.30;1.00
9949;DHT22;5013;51.840;8.276;2024-03-17T02:23:07;5.10;1.00
9949;DHT22;5013;51.840;8.276;2024-03-17T02:25:33;5.20;1.00
9949;DHT22;5013;51.840;8.276;2024-03-17T02:27:59;5.20;1.00
9949;DHT22;5013;51.840;8.276;2024-03-17T02:30:24;5.10;99.90
9949;DHT22;5013;51.840;8.276;2024-03-17T02:32:56;5.10;1.00
9949;DHT22;5013;51.840;8.276;2024-03-17T02:35:22;5.10;99.90
9949;DHT22;5013;51.840;8.276;2024-03-17T02:37:48;5.10;1.00
9949;DHT22;5013;51.840;8.276;2024-03-17T02:40:14;5.10;1.00
9949;DHT22;5013;51.840;8.276;2024-03-17T02:42:39;5.10;1.00
9949;DHT22;5013;51.840;8.276;2024-03-17T02:45:08;5.00;1.00
9949;DHT22;5013;51.840;8.276;2024-03-17T02:47:34;5.00;99.90
9949;DHT22;5013;51.840;8.276;2024-03-17T02:50:00;5.00;1.00
9949;DHT22;5013;51.840;8.276;2024-03-17T02:52:26;5.10;99.90
9949;DHT22;5013;51.840;8.276;2024-03-17T02:54:52;4.90;99.90
9949;DHT22;5013;51.840;8.276;2024-03-17T02:57:18;5.20;99.90
9949;DHT22;5013;51.840;8.276;2024-03-17T02:59:44;5.00;99.90
9949;DHT22;5013;51.840;8.276;2024-03-17T03:02:11;4.90;99.90
9949;DHT22;5013;51.840;8.276;2024-03-17T03:04:37;5.00;99.90
9949;DHT22;5013;51.840;8.276;2024-03-17T03:07:03;4.90;99.90
9949;DHT22;5013;51.840;8.276;2024-03-17T03:09:28;4.90;1.00
9949;DHT22;5013;51.840;8.276;2024-03-17T03:12:01;5.20;1.00
9949;DHT22;5013;51.840;8.276;2024-03-17T03:14:29;4.80;99.90
9949;DHT22;5013;51.840;8.276;2024-03-17T03:16:55;4.80;99.90
9949;DHT22;5013;51.840;8.276;2024-03-17T03:19:21;4.90;1.00
9949;DHT22;5013;51.840;8.276;2024-03-17T03:21:47;4.70;99.90
9949;DHT22;5013;51.840;8.276;2024-03-17T03:24:14;4.60;1.00
9949;DHT22;5013;51.840;8.276;2024-03-17T03:26:52;4.60;1.00
9949;DHT22;5013;51.840;8.276;2024-03-17T03:29:18;4.70;1.00
9949;DHT22;5013;51.840;8.276;2024-03-17T03:31:43;4.60;1.00
9949;DHT22;5013;51.840;8.276;2024-03-17T03:34:42;4.60;1.00
9949;DHT22;5013;51.840;8.276;2024-03-17T03:37:08;4.60;1.00
9949;DHT22;5013;51.840;8.276;2024-03-17T03:39:35;4.50;1.00
9949;DHT22;5013;51.840;8.276;2024-03-17T03:42:01;4.50;1.00
9949;DHT22;5013;51.840;8.276;2024-03-17T03:44:27;4.50;1.00
9949;DHT22;5013;51.840;8.276;2024-03-17T03:46:53;4.50;1.00
9949;DHT22;5013;51.840;8.276;2024-03-17T03:49:24;4.50;99.90
9949;DHT22;5013;51.840;8.276;2024-03-17T03:51:50;4.50;99.90
9949;DHT22;5013;51.840;8.276;2024-03-17T03:54:16;4.50;1.00
9949;DHT22;5013;51.840;8.276;2024-03-17T03:56:41;4.40;1.00
9949;DHT22;5013;51.840;8.276;2024-03-17T03:59:07;4.40;99.90
9949;DHT22;5013;51.840;8.276;2024-03-17T04:01:32;4.30;1.00
9949;DHT22;5013;51.840;8.276;2024-03-17T04:03:58;4.50;1.00
9949;DHT22;5013;51.840;8.276;2024-03-17T04:06:24;4.30;1.00
9949;DHT22;5013;51.840;8.276;2024-03-17T04:08:49;4.40;1.00
9949;DHT22;5013;51.840;8.276;2024-03-17T04:11:15;4.40;99.90
9949;DHT22;5013;51.840;8.276;2024-03-17T04:13:41;4.30;99.90
9949;DHT22;5013;51.840;8.276;2024-03-17T04:16:07;4.30;99.90
9949;DHT22;5013;51.840;8.276;2024-03-17T04:18:33;4.30;99.90
9949;DHT22;5013;51.840;8.276;2024-03-17T04:21:05;4.30;99.90
9949;DHT22;5013;51.840;8.276;2024-03-17T04:23:31;4.40;99.90
9949;DHT22;5013;51.840;8.276;2024-03-17T04:25:58;4.40;99.90
9949;DHT22;5013;51.840;8.276;2024-03-17T04:28:24;4.40;99.90
9949;DHT22;5013;51.840;8.276;2024-03-17T04:30:50;4.40;37.00
9949;DHT22;5013;51.840;8.276;2024-03-17T04:33:15;4.40;1.00
9949;DHT22;5013;51.840;8.276;2024-03-17T04:35:42;4.30;1.00
9949;DHT22;5013;51.840;8.276;2024-03-17T04:38:08;4.40;1.00
9949;DHT22;5013;51.840;8.276;2024-03-17T04:40:39;4.60;1.00
9949;DHT22;5013;51.840;8.276;2024-03-17T04:43:05;4.60;99.90
9949;DHT22;5013;51.840;8.276;2024-03-17T04:45:31;4.60;1.00
9949;DHT22;5013;51.840;8.276;2024-03-17T04:47:57;4.30;1.00
9949;DHT22;5013;51.840;8.276;2024-03-17T04:50:23;4.60;95.00
9949;DHT22;5013;51.840;8.276;2024-03-17T04:52:48;4.40;99.90
9949;DHT22;5013;51.840;8.276;2024-03-17T04:55:14;4.50;1.00
9949;DHT22;5013;51.840;8.276;2024-03-17T04:57:43;4.50;1.00
9949;DHT22;5013;51.840;8.276;2024-03-17T05:00:09;4.40;99.90
9949;DHT22;5013;51.840;8.276;2024-03-17T05:02:37;4.20;1.00
9949;DHT22;5013;51.840;8.276;2024-03-17T05:05:03;4.10;1.00
9949;DHT22;5013;51.840;8.276;2024-03-17T05:07:31;4.20;1.00
9949;DHT22;5013;51.840;8.276;2024-03-17T05:09:56;4.30;1.00
9949;DHT22;5013;51.840;8.276;2024-03-17T05:12:22;4.60;99.90
9949;DHT22;5013;51.840;8.276;2024-03-17T05:14:48;4.50;1.00
9949;DHT22;5013;51.840;8.276;2024-03-17T05:17:14;4.60;1.00
9949;DHT22;5013;51.840;8.276;2024-03-17T05:19:40;4.60;99.90
9949;DHT22;5013;51.840;8.276;2024-03-17T05:22:05;4.60;99.90
9949;DHT22;5013;51.840;8.276;2024-03-17T05:24:31;4.60;95.70
9949;DHT22;5013;51.840;8.276;2024-03-17T05:26:56;4.50;1.00
9949;DHT22;5013;51.840;8.276;2024-03-17T05:29:22;4.60;1.00
9949;DHT22;5013;51.840;8.276;2024-03-17T05:31:49;4.50;99.90
9949;DHT22;5013;51.840;8.276;2024-03-17T05:34:15;4.50;1.00
9949;DHT22;5013;51.840;8.276;2024-03-17T05:36:40;4.60;99.90
9949;DHT22;5013;51.840;8.276;2024-03-17T05:39:06;4.40;1.00
9949;DHT22;5013;51.840;8.276;2024-03-17T05:41:31;4.50;1.00
9949;DHT22;5013;51.840;8.276;2024-03-17T05:43:57;4.50;1.00
9949;DHT22;5013;51.840;8.276;2024-03-17T05:46:24;4.70;99.90
9949;DHT22;5013;51.840;8.276;2024-03-17T05:48:51;4.70;99.90
9949;DHT22;5013;51.840;8.276;2024-03-17T05:51:17;4.70;16.80
9949;DHT22;5013;51.840;8.276;2024-03-17T05:53:43;4.70;99.90
9949;DHT22;5013;51.840;8.276;2024-03-17T05:56:09;4.90;1.00
9949;DHT22;5013;51.840;8.276;2024-03-17T05:58:37;4.70;1.00
9949;DHT22;5013;51.840;8.276;2024-03-17T06:01:03;4.70;4.70
9949;DHT22;5013;51.840;8.276;2024-03-17T06:03:29;4.60;1.00
9949;DHT22;5013;51.840;8.276;2024-03-17T06:05:55;4.70;1.00
9949;DHT22;5013;51.840;8.276;2024-03-17T06:08:21;4.70;1.00
9949;DHT22;5013;51.840;8.276;2024-03-17T06:10:48;4.70;99.90
9949;DHT22;5013;51.840;8.276;2024-03-17T06:13:14;4.80;1.00
9949;DHT22;5013;51.840;8.276;2024-03-17T06:15:45;4.80;1.00
9949;DHT22;5013;51.840;8.276;2024-03-17T06:18:14;4.90;99.90
9949;DHT22;5013;51.840;8.276;2024-03-17T06:20:42;4.90;99.90
9949;DHT22;5013;51.840;8.276;2024-03-17T06:23:09;4.90;1.00
9949;DHT22;5013;51.840;8.276;2024-03-17T06:25:46;5.10;99.90
9949;DHT22;5013;51.840;8.276;2024-03-17T06:28:13;5.10;99.90
9949;DHT22;5013;51.840;8.276;2024-03-17T06:30:43;5.00;99.90
9949;DHT22;5013;51.840;8.276;2024-03-17T06:33:13;5.00;99.90
9949;DHT22;5013;51.840;8.276;2024-03-17T06:35:39;5.10;94.10
9949;DHT22;5013;51.840;8.276;2024-03-17T06:38:05;5.20;1.00
9949;DHT22;5013;51.840;8.276;2024-03-17T06:40:30;5.20;99.90
9949;DHT22;5013;51.840;8.276;2024-03-17T06:42:56;5.40;1.00
9949;DHT22;5013;51.840;8.276;2024-03-17T06:45:22;5.30;1.00
9949;DHT22;5013;51.840;8.276;2024-03-17T06:47:48;5.50;1.00
9949;DHT22;5013;51.840;8.276;2024-03-17T06:50:14;5.30;99.90
9949;DHT22;5013;51.840;8.276;2024-03-17T06:52:40;5.30;99.90
9949;DHT22;5013;51.840;8.276;2024-03-17T06:55:06;5.50;10.00
9949;DHT22;5013;51.840;8.276;2024-03-17T06:57:32;5.40;99.90
9949;DHT22;5013;51.840;8.276;2024-03-17T06:59:59;5.30;9.00
9949;DHT22;5013;51.840;8.276;2024-03-17T07:02:25;5.40;1.00
9949;DHT22;5013;51.840;8.276;2024-03-17T07:04:50;5.40;1.00
9949;DHT22;5013;51.840;8.276;2024-03-17T07:07:16;5.50;99.90
9949;DHT22;5013;51.840;8.276;2024-03-17T07:09:42;5.80;99.90
9949;DHT22;5013;51.840;8.276;2024-03-17T07:12:09;5.90;99.90
9949;DHT22;5013;51.840;8.276;2024-03-17T07:14:35;6.10;1.00
9949;DHT22;5013;51.840;8.276;2024-03-17T07:17:01;6.30;1.00
9949;DHT22;5013;51.840;8.276;2024-03-17T07:19:26;6.30;1.00
9949;DHT22;5013;51.840;8.276;2024-03-17T07:21:52;6.80;1.00
9949;DHT22;5013;51.840;8.276;2024-03-17T07:24:17;6.80;99.90
9949;DHT22;5013;51.840;8.276;2024-03-17T07:26:44;7.00;1.00
9949;DHT22;5013;51.840;8.276;2024-03-17T07:29:09;7.10;1.00
9949;DHT22;5013;51.840;8.276;2024-03-17T07:31:35;7.20;1.00
9949;DHT22;5013;51.840;8.276;2024-03-17T07:34:01;7.40;99.90
9949;DHT22;5013;51.840;8.276;2024-03-17T07:36:27;7.40;99.90
9949;DHT22;5013;51.840;8.276;2024-03-17T07:38:52;7.60;1.00
9949;DHT22;5013;51.840;8.276;2024-03-17T07:41:18;7.70;99.90
9949;DHT22;5013;51.840;8.276;2024-03-17T07:43:49;7.80;99.90
9949;DHT22;5013;51.840;8.276;2024-03-17T07:46:15;7.80;1.00
9949;DHT22;5013;51.840;8.276;2024-03-17T07:48:42;8.00;17.40
9949;DHT22;5013;51.840;8.276;2024-03-17T07:51:13;8.20;1.00
9949;DHT22;5013;51.840;8.276;2024-03-17T07:53:40;8.40;1.00
9949;DHT22;5013;51.840;8.276;2024-03-17T07:56:10;8.40;1.00
9949;DHT22;5013;51.840;8.276;2024-03-17T07:58:38;8.60;1.00
9949;DHT22;5013;51.840;8.276;2024-03-17T08:01:06;8.80;1.00
9949;DHT22;5013;51.840;8.276;2024-03-17T08:03:33;8.80;1.00
9949;DHT22;5013;51.840;8.276;2024-03-17T08:06:01;9.20;1.00
9949;DHT22;5013;51.840;8.276;2024-03-17T08:08:27;8.90;1.00
9949;DHT22;5013;51.840;8.276;2024-03-17T08:10:53;8.80;1.00
9949;DHT22;5013;51.840;8.276;2024-03-17T08:13:20;8.90;1.00
9949;DHT22;5013;51.840;8.276;2024-03-17T08:15:46;8.90;1.00
9949;DHT22;5013;51.840;8.276;2024-03-17T08:18:13;9.10;1.00
9949;DHT22;5013;51.840;8.276;2024-03-17T08:20:42;9.30;99.90
9949;DHT22;5013;51.840;8.276;2024-03-17T08:23:09;9.40;99.90
9949;DHT22;5013;51.840;8.276;2024-03-17T08:25:36;9.50;99.90
9949;DHT22;5013;51.840;8.276;2024-03-17T08:28:02;9.50;99.90
9949;DHT22;5013;51.840;8.276;2024-03-17T08:30:28;9.60;99.90
9949;DHT22;5013;51.840;8.276;2024-03-17T08:32:54;9.80;99.90
9949;DHT22;5013;51.840;8.276;2024-03-17T08:35:19;9.90;99.90
9949;DHT22;5013;51.840;8.276;2024-03-17T08:37:45;10.00;99.90
9949;DHT22;5013;51.840;8.276;2024-03-17T08:40:11;10.10;99.90
9949;DHT22;5013;51.840;8.276;2024-03-17T08:42:37;10.30;99.90
9949;DHT22;5013;51.840;8.276;2024-03-17T08:45:03;10.40;99.90
9949;DHT22;5013;51.840;8.276;2024-03-17T08:47:29;10.40;99.90
9949;DHT22;5013;51.840;8.276;2024-03-17T08:49:55;10.50;99.90
9949;DHT22;5013;51.840;8.276;2024-03-17T08:52:20;10.60;99.90
9949;DHT22;5013;51.840;8.276;2024-03-17T08:54:47;10.50;94.40
9949;DHT22;5013;51.840;8.276;2024-03-17T08:57:13;10.20;64.10
9949;DHT22;5013;51.840;8.276;2024-03-17T08:59:39;10.30;99.90
9949;DHT22;5013;51.840;8.276;2024-03-17T09:02:05;10.30;94.20
9949;DHT22;5013;51.840;8.276;2024-03-17T09:04:31;10.30;96.00
9949;DHT22;5013;51.840;8.276;2024-03-17T09:06:57;10.40;99.90
9949;DHT22;5013;51.840;8.276;2024-03-17T09:09:23;10.60;56.10
9949;DHT22;5013;51.840;8.276;2024-03-17T09:11:49;10.50;99.90
9949;DHT22;5013;51.840;8.276;2024-03-17T09:14:16;10.30;64.80
9949;DHT22;5013;51.840;8.276;2024-03-17T09:16:42;10.10;91.40
9949;DHT22;5013;51.840;8.276;2024-03-17T09:19:08;10.10;69.00
9949;DHT22;5013;51.840;8.276;2024-03-17T09:21:34;10.20;99.90
9949;DHT22;5013;51.840;8.276;2024-03-17T09:24:00;10.10;99.90
9949;DHT22;5013;51.840;8.276;2024-03-17T09:26:25;10.10;99.90
9949;DHT22;5013;51.840;8.276;2024-03-17T09:28:51;10.00;75.70
9949;DHT22;5013;51.840;8.276;2024-03-17T09:31:16;10.10;99.90
9949;DHT22;5013;51.840;8.276;2024-03-17T09:33:42;10.30;61.50
9949;DHT22;5013;51.840;8.276;2024-03-17T09:36:09;10.50;76.20
9949;DHT22;5013;51.840;8.276;2024-03-17T09:38:37;10.70;96.50
9949;DHT22;5013;51.840;8.276;2024-03-17T09:41:03;11.10;1.00
9949;DHT22;5013;51.840;8.276;2024-03-17T09:43:32;10.90;1.00
9949;DHT22;5013;51.840;8.276;2024-03-17T09:45:58;11.30;15.40
9949;DHT22;5013;51.840;8.276;2024-03-17T09:48:25;11.40;1.00
9949;DHT22;5013;51.840;8.276;2024-03-17T09:55:49;10.90;1.00
9949;DHT22;5013;51.840;8.276;2024-03-17T09:58:16;10.80;1.00
9949;DHT22;5013;51.840;8.276;2024-03-17T10:00:45;10.80;6.90
9949;DHT22;5013;51.840;8.276;2024-03-17T10:03:12;11.00;21.80
9949;DHT22;5013;51.840;8.276;2024-03-17T10:05:38;11.00;1.00
9949;DHT22;5013;51.840;8.276;2024-03-17T10:08:04;11.20;1.00
9949;DHT22;5013;51.840;8.276;2024-03-17T10:10:30;11.30;17.90
9949;DHT22;5013;51.840;8.276;2024-03-17T10:12:55;11.50;1.00
9949;DHT22;5013;51.840;8.276;2024-03-17T10:15:21;11.70;1.00
9949;DHT22;5013;51.840;8.276;2024-03-17T10:17:49;11.60;1.00
9949;DHT22;5013;51.840;8.276;2024-03-17T10:20:16;12.00;1.00
9949;DHT22;5013;51.840;8.276;2024-03-17T10:23:04;12.10;1.00
9949;DHT22;5013;51.840;8.276;2024-03-17T10:25:34;12.10;1.00
9949;DHT22;5013;51.840;8.276;2024-03-17T10:28:01;12.00;1.00
9949;DHT22;5013;51.840;8.276;2024-03-17T10:30:27;12.00;1.00
9949;DHT22;5013;51.840;8.276;2024-03-17T10:32:59;11.90;1.00
9949;DHT22;5013;51.840;8.276;2024-03-17T10:35:36;12.10;1.00
9949;DHT22;5013;51.840;8.276;2024-03-17T10:38:06;12.10;1.00
9949;DHT22;5013;51.840;8.276;2024-03-17T10:40:33;12.20;1.00
9949;DHT22;5013;51.840;8.276;2024-03-17T10:43:02;11.80;1.00
9949;DHT22;5013;51.840;8.276;2024-03-17T10:45:28;12.00;1.00
9949;DHT22;5013;51.840;8.276;2024-03-17T10:48:01;12.10;1.00
9949;DHT22;5013;51.840;8.276;2024-03-17T10:50:30;12.10;1.00
9949;DHT22;5013;51.840;8.276;2024-03-17T10:53:01;12.00;1.00
9949;DHT22;5013;51.840;8.276;2024-03-17T10:55:31;12.10;1.00
9949;DHT22;5013;51.840;8.276;2024-03-17T10:57:59;12.10;1.00
9949;DHT22;5013;51.840;8.276;2024-03-17T11:00:27;12.00;1.00
9949;DHT22;5013;51.840;8.276;2024-03-17T11:02:54;12.20;1.00
9949;DHT22;5013;51.840;8.276;2024-03-17T11:05:22;12.30;1.00
9949;DHT22;5013;51.840;8.276;2024-03-17T11:07:50;12.60;1.00
9949;DHT22;5013;51.840;8.276;2024-03-17T11:10:20;12.80;1.00
9949;DHT22;5013;51.840;8.276;2024-03-17T11:12:51;12.70;1.00
9949;DHT22;5013;51.840;8.276;2024-03-17T11:17:50;12.80;1.00
9949;DHT22;5013;51.840;8.276;2024-03-17T11:20:27;13.00;1.00
9949;DHT22;5013;51.840;8.276;2024-03-17T11:23:03;13.30;1.00
9949;DHT22;5013;51.840;8.276;2024-03-17T11:28:03;13.60;1.00
9949;DHT22;5013;51.840;8.276;2024-03-17T11:38:58;13.10;1.00
9949;DHT22;5013;51.840;8.276;2024-03-17T11:41:42;13.30;1.00
9949;DHT22;5013;51.840;8.276;2024-03-17T11:47:06;13.00;1.00
9949;DHT22;5013;51.840;8.276;2024-03-17T11:52:09;13.40;1.00
9949;DHT22;5013;51.840;8.276;2024-03-17T11:54:37;13.30;1.00
9949;DHT22;5013;51.840;8.276;2024-03-17T11:57:04;13.20;1.00
9949;DHT22;5013;51.840;8.276;2024-03-17T11:59:31;13.40;1.00
9949;DHT22;5013;51.840;8.276;2024-03-17T12:01:57;13.80;1.00
9949;DHT22;5013;51.840;8.276;2024-03-17T12:04:24;13.80;1.00
9949;DHT22;5013;51.840;8.276;2024-03-17T12:06:57;13.90;1.00
9949;DHT22;5013;51.840;8.276;2024-03-17T12:09:25;14.10;1.00
9949;DHT22;5013;51.840;8.276;2024-03-17T12:12:05;14.30;1.00
9949;DHT22;5013;51.840;8.276;2024-03-17T12:14:38;14.40;1.00
9949;DHT22;5013;51.840;8.276;2024-03-17T12:17:05;14.40;1.00
9949;DHT22;5013;51.840;8.276;2024-03-17T12:19:32;14.10;1.00
9949;DHT22;5013;51.840;8.276;2024-03-17T12:21:59;14.20;1.00
9949;DHT22;5013;51.840;8.276;2024-03-17T12:24:29;14.50;1.00
9949;DHT22;5013;51.840;8.276;2024-03-17T12:26:57;14.60;1.00
9949;DHT22;5013;51.840;8.276;2024-03-17T12:29:32;14.20;1.00
9949;DHT22;5013;51.840;8.276;2024-03-17T12:32:04;14.00;1.00
9949;DHT22;5013;51.840;8.276;2024-03-17T12:34:33;13.80;1.00
9949;DHT22;5013;51.840;8.276;2024-03-17T12:37:00;13.70;1.00
9949;DHT22;5013;51.840;8.276;2024-03-17T12:39:28;14.00;1.00
9949;DHT22;5013;51.840;8.276;2024-03-17T12:42:10;14.20;1.00
9949;DHT22;5013;51.840;8.276;2024-03-17T12:44:59;13.80;1.00
9949;DHT22;5013;51.840;8.276;2024-03-17T12:47:31;13.80;1.00
9949;DHT22;5013;51.840;8.276;2024-03-17T12:50:00;13.80;1.00
9949;DHT22;5013;51.840;8.276;2024-03-17T12:52:28;14.00;1.00
9949;DHT22;5013;51.840;8.276;2024-03-17T12:55:00;14.10;1.00
9949;DHT22;5013;51.840;8.276;2024-03-17T12:57:44;14.30;1.00
9949;DHT22;5013;51.840;8.276;2024-03-17T13:00:29;14.60;1.00
9949;DHT22;5013;51.840;8.276;2024-03-17T13:03:05;14.30;1.00
9949;DHT22;5013;51.840;8.276;2024-03-17T13:05:32;14.10;1.00
9949;DHT22;5013;51.840;8.276;2024-03-17T13:07:58;14.10;1.00
9949;DHT22;5013;51.840;8.276;2024-03-17T13:10:25;14.30;1.00
9949;DHT22;5013;51.840;8.276;2024-03-17T13:13:04;14.30;1.00
9949;DHT22;5013;51.840;8.276;2024-03-17T13:15:31;14.20;1.00
9949;DHT22;5013;51.840;8.276;2024-03-17T13:17:59;14.10;1.00
9949;DHT22;5013;51.840;8.276;2024-03-17T13:20:26;14.00;1.00
9949;DHT22;5013;51.840;8.276;2024-03-17T13:22:52;13.70;1.00
9949;DHT22;5013;51.840;8.276;2024-03-17T13:25:22;13.60;1.00
9949;DHT22;5013;51.840;8.276;2024-03-17T13:27:50;13.70;1.00
9949;DHT22;5013;51.840;8.276;2024-03-17T13:30:17;13.50;1.00
9949;DHT22;5013;51.840;8.276;2024-03-17T13:32:43;13.70;1.00
9949;DHT22;5013;51.840;8.276;2024-03-17T13:35:16;13.80;1.00
9949;DHT22;5013;51.840;8.276;2024-03-17T13:37:44;14.00;1.00
9949;DHT22;5013;51.840;8.276;2024-03-17T13:40:10;14.00;1.00
9949;DHT22;5013;51.840;8.276;2024-03-17T13:42:38;13.80;1.00
9949;DHT22;5013;51.840;8.276;2024-03-17T13:45:05;13.70;1.00
9949;DHT22;5013;51.840;8.276;2024-03-17T13:47:32;13.70;1.00
9949;DHT22;5013;51.840;8.276;2024-03-17T13:49:58;13.90;1.00
9949;DHT22;5013;51.840;8.276;2024-03-17T13:52:24;13.80;1.00
9949;DHT22;5013;51.840;8.276;2024-03-17T13:54:49;13.90;1.00
9949;DHT22;5013;51.840;8.276;2024-03-17T13:57:15;14.00;1.00
9949;DHT22;5013;51.840;8.276;2024-03-17T13:59:42;13.90;1.00
9949;DHT22;5013;51.840;8.276;2024-03-17T14:02:12;13.80;1.00
9949;DHT22;5013;51.840;8.276;2024-03-17T14:04:38;13.60;1.00
9949;DHT22;5013;51.840;8.276;2024-03-17T14:07:03;13.50;1.00
9949;DHT22;5013;51.840;8.276;2024-03-17T14:09:30;13.60;1.00
9949;DHT22;5013;51.840;8.276;2024-03-17T14:11:56;13.70;1.00
9949;DHT22;5013;51.840;8.276;2024-03-17T14:14:23;13.80;1.00
9949;DHT22;5013;51.840;8.276;2024-03-17T14:16:48;13.70;1.00
9949;DHT22;5013;51.840;8.276;2024-03-17T14:19:14;13.70;1.00
9949;DHT22;5013;51.840;8.276;2024-03-17T14:21:40;13.70;1.00
9949;DHT22;5013;51.840;8.276;2024-03-17T14:24:05;13.70;1.00
9949;DHT22;5013;51.840;8.276;2024-03-17T14:26:33;13.90;1.00
9949;DHT22;5013;51.840;8.276;2024-03-17T14:29:03;13.90;1.00
9949;DHT22;5013;51.840;8.276;2024-03-17T14:31:33;13.90;1.00
9949;DHT22;5013;51.840;8.276;2024-03-17T14:34:04;14.10;1.00
9949;DHT22;5013;51.840;8.276;2024-03-17T14:36:33;14.00;1.00
9949;DHT22;5013;51.840;8.276;2024-03-17T14:39:02;14.10;1.00
9949;DHT22;5013;51.840;8.276;2024-03-17T14:41:31;14.00;1.00
9949;DHT22;5013;51.840;8.276;2024-03-17T14:43:57;14.00;1.00
9949;DHT22;5013;51.840;8.276;2024-03-17T14:46:23;13.90;1.00
9949;DHT22;5013;51.840;8.276;2024-03-17T14:48:49;14.00;1.00
9949;DHT22;5013;51.840;8.276;2024-03-17T14:51:17;14.00;1.00
9949;DHT22;5013;51.840;8.276;2024-03-17T14:53:42;14.00;1.00
9949;DHT22;5013;51.840;8.276;2024-03-17T14:56:17;13.90;1.00
9949;DHT22;5013;51.840;8.276;2024-03-17T14:58:43;14.00;1.00
9949;DHT22;5013;51.840;8.276;2024-03-17T15:01:10;13.90;1.00
9949;DHT22;5013;51.840;8.276;2024-03-17T15:03:36;13.90;1.00
9949;DHT22;5013;51.840;8.276;2024-03-17T15:06:02;13.80;1.00
9949;DHT22;5013;51.840;8.276;2024-03-17T15:08:31;13.70;1.00
9949;DHT22;5013;51.840;8.276;2024-03-17T15:10:56;13.70;1.00
9949;DHT22;5013;51.840;8.276;2024-03-17T15:13:22;13.70;1.00
9949;DHT22;5013;51.840;8.276;2024-03-17T15:15:49;13.80;1.00
9949;DHT22;5013;51.840;8.276;2024-03-17T15:18:15;13.80;1.00
9949;DHT22;5013;51.840;8.276;2024-03-17T15:20:41;13.70;1.00
9949;DHT22;5013;51.840;8.276;2024-03-17T15:23:07;13.70;1.00
9949;DHT22;5013;51.840;8.276;2024-03-17T15:25:33;13.60;1.00
9949;DHT22;5013;51.840;8.276;2024-03-17T15:27:59;13.50;1.00
9949;DHT22;5013;51.840;8.276;2024-03-17T15:30:26;13.60;1.00
9949;DHT22;5013;51.840;8.276;2024-03-17T15:32:55;13.80;1.00
9949;DHT22;5013;51.840;8.276;2024-03-17T15:35:23;13.70;1.00
9949;DHT22;5013;51.840;8.276;2024-03-17T15:37:49;13.70;1.00
9949;DHT22;5013;51.840;8.276;2024-03-17T15:40:15;13.80;1.00
9949;DHT22;5013;51.840;8.276;2024-03-17T15:42:52;13.70;1.00
9949;DHT22;5013;51.840;8.276;2024-03-17T15:45:19;13.70;1.00
9949;DHT22;5013;51.840;8.276;2024-03-17T15:47:51;13.60;1.00
9949;DHT22;5013;51.840;8.276;2024-03-17T15:50:16;13.50;1.00
9949;DHT22;5013;51.840;8.276;2024-03-17T15:52:42;13.50;1.00
9949;DHT22;5013;51.840;8.276;2024-03-17T15:55:08;13.40;1.00
9949;DHT22;5013;51.840;8.276;2024-03-17T15:57:34;13.40;1.00
9949;DHT22;5013;51.840;8.276;2024-03-17T16:00:01;13.30;1.00
9949;DHT22;5013;51.840;8.276;2024-03-17T16:02:26;13.30;1.00
9949;DHT22;5013;51.840;8.276;2024-03-17T16:04:53;13.40;1.00
9949;DHT22;5013;51.840;8.276;2024-03-17T16:07:20;13.30;1.00
9949;DHT22;5013;51.840;8.276;2024-03-17T16:09:47;13.30;1.00
9949;DHT22;5013;51.840;8.276;2024-03-17T16:12:13;13.30;1.00
9949;DHT22;5013;51.840;8.276;2024-03-17T16:14:41;13.30;1.00
9949;DHT22;5013;51.840;8.276;2024-03-17T16:17:07;13.20;1.00
9949;DHT22;5013;51.840;8.276;2024-03-17T16:19:34;13.10;1.00
9949;DHT22;5013;51.840;8.276;2024-03-17T16:22:02;13.10;1.00
9949;DHT22;5013;51.840;8.276;2024-03-17T16:24:31;13.10;1.00
9949;DHT22;5013;51.840;8.276;2024-03-17T16:26:57;13.00;1.00
9949;DHT22;5013;51.840;8.276;2024-03-17T16:29:23;13.00;1.00
9949;DHT22;5013;51.840;8.276;2024-03-17T16:31:49;12.90;1.00
9949;DHT22;5013;51.840;8.276;2024-03-17T16:34:15;12.80;1.00
9949;DHT22;5013;51.840;8.276;2024-03-17T16:36:43;12.80;1.00
9949;DHT22;5013;51.840;8.276;2024-03-17T16:39:12;12.80;1.00
9949;DHT22;5013;51.840;8.276;2024-03-17T16:41:40;12.70;1.00
9949;DHT22;5013;51.840;8.276;2024-03-17T16:44:26;12.70;1.00
9949;DHT22;5013;51.840;8.276;2024-03-17T16:49:32;12.60;1.00